Dades de l'estació automàtica Port de Barcelona - Bocana Sud

?
?
Resum diari 13:00 TU
Dades diàries de l'estació meteorològica
Ratxa màxima del vent (10 m) 27.7 km/h - 219º 9:59 TU

El tram horari està expressat en Temps Universal (TU). Cal sumar una hora en horari d'hivern i dues en horari d'estiu per passar a l'hora oficial.

Port de Barcelona - Bocana Sud

Metadades estació meteorol´gica
Municipi El Prat de Llobregat
Comarca Baix Llobregat
Altitud 3 m
Data alta 08.04.2015
Estat actual Operativa
Dades de període
Període
TU
VVM (10 m)
km/h
DVM (10 m)
graus
VVX (10 m)
km/h
00:00 - 00:30 10.1 261 12.6
00:30 - 01:00 10.8 264 13.0
01:00 - 01:30 10.8 264 14.4
01:30 - 02:00 11.5 265 14.4
02:00 - 02:30 11.5 263 13.7
02:30 - 03:00 11.5 265 15.5
03:00 - 03:30 10.1 265 13.7
03:30 - 04:00 9.7 264 12.2
04:00 - 04:30 10.1 258 13.0
04:30 - 05:00 11.2 259 14.8
05:00 - 05:30 11.9 264 15.5
05:30 - 06:00 13.0 263 14.8
06:00 - 06:30 11.5 262 14.8
06:30 - 07:00 13.7 256 16.9
07:00 - 07:30 11.9 263 14.8
07:30 - 08:00 10.1 257 15.1
08:00 - 08:30 11.2 241 18.4
08:30 - 09:00 15.1 219 21.2
09:00 - 09:30 18.4 209 23.8
09:30 - 10:00 19.4 208 27.7
10:00 - 10:30 19.4 214 27.7
10:30 - 11:00 18.0 209 23.4
11:00 - 11:30 15.5 200 19.8
11:30 - 12:00 15.1 200 19.1
12:00 - 12:30 14.8 195 18.4
12:30 - 13:00 14.4 194 17.6
13:00 - 13:30 16.2 196 20.5

Les dades en taronja només han passat un control de qualitat automàtic. Resta pendent la seva validació definitiva.